sensor_id;sensor_type;location;lat;lon;timestamp;P1;durP1;ratioP1;P2;durP2;ratioP2
50231;SDS011;36118;56.468;84.952;2022-08-19T00:04:39;5.20;;;3.47;;
50231;SDS011;36118;56.468;84.952;2022-08-19T00:09:42;5.50;;;3.05;;
50231;SDS011;36118;56.468;84.952;2022-08-19T00:14:45;6.63;;;3.05;;
50231;SDS011;36118;56.468;84.952;2022-08-19T00:19:48;5.60;;;3.13;;
50231;SDS011;36118;56.468;84.952;2022-08-19T00:24:51;4.85;;;3.40;;
50231;SDS011;36118;56.468;84.952;2022-08-19T00:29:53;6.55;;;3.70;;
50231;SDS011;36118;56.468;84.952;2022-08-19T00:34:56;6.97;;;3.85;;
50231;SDS011;36118;56.468;84.952;2022-08-19T00:39:59;6.38;;;3.97;;
50231;SDS011;36118;56.468;84.952;2022-08-19T00:45:05;6.70;;;3.70;;
50231;SDS011;36118;56.468;84.952;2022-08-19T00:50:17;6.10;;;3.47;;
50231;SDS011;36118;56.468;84.952;2022-08-19T00:55:22;6.30;;;3.78;;
50231;SDS011;36118;56.468;84.952;2022-08-19T01:00:27;6.20;;;3.22;;
50231;SDS011;36118;56.468;84.952;2022-08-19T01:05:30;10.35;;;3.47;;
50231;SDS011;36118;56.468;84.952;2022-08-19T01:10:36;7.80;;;3.33;;
50231;SDS011;36118;56.468;84.952;2022-08-19T01:15:42;25.63;;;3.88;;
50231;SDS011;36118;56.468;84.952;2022-08-19T01:20:47;9.32;;;3.85;;
50231;SDS011;36118;56.468;84.952;2022-08-19T01:25:51;24.25;;;4.20;;
50231;SDS011;36118;56.468;84.952;2022-08-19T01:30:54;35.20;;;4.70;;
50231;SDS011;36118;56.468;84.952;2022-08-19T01:36:12;31.98;;;4.70;;
50231;SDS011;36118;56.468;84.952;2022-08-19T01:41:17;49.20;;;5.20;;
50231;SDS011;36118;56.468;84.952;2022-08-19T01:46:20;44.80;;;4.90;;
50231;SDS011;36118;56.468;84.952;2022-08-19T01:51:26;38.67;;;4.60;;
50231;SDS011;36118;56.468;84.952;2022-08-19T01:56:29;39.83;;;4.47;;
50231;SDS011;36118;56.468;84.952;2022-08-19T02:01:32;37.22;;;4.72;;
50231;SDS011;36118;56.468;84.952;2022-08-19T02:06:37;42.28;;;4.78;;
50231;SDS011;36118;56.468;84.952;2022-08-19T02:11:41;29.70;;;4.60;;
50231;SDS011;36118;56.468;84.952;2022-08-19T02:16:44;9.27;;;4.22;;
50231;SDS011;36118;56.468;84.952;2022-08-19T02:21:47;21.08;;;4.80;;
50231;SDS011;36118;56.468;84.952;2022-08-19T02:26:50;34.33;;;5.22;;
50231;SDS011;36118;56.468;84.952;2022-08-19T02:31:53;34.92;;;8.20;;
50231;SDS011;36118;56.468;84.952;2022-08-19T02:36:56;46.22;;;6.13;;
50231;SDS011;36118;56.468;84.952;2022-08-19T02:42:04;28.42;;;5.90;;
50231;SDS011;36118;56.468;84.952;2022-08-19T02:47:07;34.85;;;6.57;;
50231;SDS011;36118;56.468;84.952;2022-08-19T02:52:12;24.80;;;5.75;;
50231;SDS011;36118;56.468;84.952;2022-08-19T03:02:26;43.78;;;7.15;;
50231;SDS011;36118;56.468;84.952;2022-08-19T03:07:32;24.40;;;7.32;;
50231;SDS011;36118;56.468;84.952;2022-08-19T03:12:37;15.57;;;6.25;;
50231;SDS011;36118;56.468;84.952;2022-08-19T03:17:42;23.90;;;5.30;;
50231;SDS011;36118;56.468;84.952;2022-08-19T03:22:45;14.10;;;4.55;;
50231;SDS011;36118;56.468;84.952;2022-08-19T03:27:48;9.70;;;6.05;;
50231;SDS011;36118;56.468;84.952;2022-08-19T03:32:51;9.88;;;5.80;;
50231;SDS011;36118;56.468;84.952;2022-08-19T03:37:58;12.38;;;5.80;;
50231;SDS011;36118;56.468;84.952;2022-08-19T03:43:01;10.02;;;6.43;;
50231;SDS011;36118;56.468;84.952;2022-08-19T03:48:07;8.00;;;5.60;;
50231;SDS011;36118;56.468;84.952;2022-08-19T03:58:15;7.65;;;5.97;;
50231;SDS011;36118;56.468;84.952;2022-08-19T04:03:18;9.57;;;5.97;;
50231;SDS011;36118;56.468;84.952;2022-08-19T04:08:21;10.23;;;6.60;;
50231;SDS011;36118;56.468;84.952;2022-08-19T04:13:24;8.68;;;6.45;;
50231;SDS011;36118;56.468;84.952;2022-08-19T04:18:28;11.75;;;6.93;;
50231;SDS011;36118;56.468;84.952;2022-08-19T04:23:39;12.40;;;6.88;;
50231;SDS011;36118;56.468;84.952;2022-08-19T04:28:46;10.50;;;6.55;;
50231;SDS011;36118;56.468;84.952;2022-08-19T04:33:50;12.63;;;7.15;;
50231;SDS011;36118;56.468;84.952;2022-08-19T04:38:53;14.68;;;8.45;;
50231;SDS011;36118;56.468;84.952;2022-08-19T04:43:57;10.70;;;6.90;;
50231;SDS011;36118;56.468;84.952;2022-08-19T04:49:05;10.60;;;7.55;;
50231;SDS011;36118;56.468;84.952;2022-08-19T04:54:15;9.30;;;6.60;;
50231;SDS011;36118;56.468;84.952;2022-08-19T04:59:41;11.50;;;7.40;;
50231;SDS011;36118;56.468;84.952;2022-08-19T05:04:44;10.43;;;8.07;;
50231;SDS011;36118;56.468;84.952;2022-08-19T05:09:47;10.95;;;7.45;;
50231;SDS011;36118;56.468;84.952;2022-08-19T05:15:01;11.68;;;8.73;;
50231;SDS011;36118;56.468;84.952;2022-08-19T05:20:08;12.10;;;8.07;;
50231;SDS011;36118;56.468;84.952;2022-08-19T05:25:30;12.75;;;8.52;;
50231;SDS011;36118;56.468;84.952;2022-08-19T05:30:33;12.73;;;8.90;;
50231;SDS011;36118;56.468;84.952;2022-08-19T05:35:48;10.52;;;8.40;;
50231;SDS011;36118;56.468;84.952;2022-08-19T05:40:58;10.63;;;8.07;;
50231;SDS011;36118;56.468;84.952;2022-08-19T05:46:01;9.23;;;7.40;;
50231;SDS011;36118;56.468;84.952;2022-08-19T05:57:08;8.85;;;7.38;;
50231;SDS011;36118;56.468;84.952;2022-08-19T06:02:14;12.90;;;7.80;;
50231;SDS011;36118;56.468;84.952;2022-08-19T06:07:17;11.23;;;9.07;;
50231;SDS011;36118;56.468;84.952;2022-08-19T06:12:21;13.57;;;10.75;;
50231;SDS011;36118;56.468;84.952;2022-08-19T06:17:31;12.25;;;10.13;;
50231;SDS011;36118;56.468;84.952;2022-08-19T06:27:46;15.65;;;10.25;;
50231;SDS011;36118;56.468;84.952;2022-08-19T06:33:09;12.75;;;9.45;;
50231;SDS011;36118;56.468;84.952;2022-08-19T06:38:12;10.27;;;8.10;;
50231;SDS011;36118;56.468;84.952;2022-08-19T06:43:15;12.98;;;8.75;;
50231;SDS011;36118;56.468;84.952;2022-08-19T06:48:19;12.40;;;7.88;;
50231;SDS011;36118;56.468;84.952;2022-08-19T06:53:23;8.93;;;7.00;;
50231;SDS011;36118;56.468;84.952;2022-08-19T06:58:48;9.35;;;7.43;;
50231;SDS011;36118;56.468;84.952;2022-08-19T07:03:54;10.85;;;7.63;;
50231;SDS011;36118;56.468;84.952;2022-08-19T07:08:59;8.83;;;6.80;;
50231;SDS011;36118;56.468;84.952;2022-08-19T07:14:03;9.48;;;7.75;;
50231;SDS011;36118;56.468;84.952;2022-08-19T07:19:20;10.07;;;7.50;;
50231;SDS011;36118;56.468;84.952;2022-08-19T07:24:24;11.38;;;9.23;;
50231;SDS011;36118;56.468;84.952;2022-08-19T07:29:37;13.88;;;9.63;;
50231;SDS011;36118;56.468;84.952;2022-08-19T07:34:40;17.48;;;10.27;;
50231;SDS011;36118;56.468;84.952;2022-08-19T07:39:43;15.35;;;10.98;;
50231;SDS011;36118;56.468;84.952;2022-08-19T07:44:46;15.02;;;12.05;;
50231;SDS011;36118;56.468;84.952;2022-08-19T07:49:51;13.87;;;9.87;;
50231;SDS011;36118;56.468;84.952;2022-08-19T07:54:54;16.40;;;12.30;;
50231;SDS011;36118;56.468;84.952;2022-08-19T07:59:57;16.63;;;13.38;;
50231;SDS011;36118;56.468;84.952;2022-08-19T08:05:00;15.00;;;12.75;;
50231;SDS011;36118;56.468;84.952;2022-08-19T08:10:28;15.30;;;12.73;;
50231;SDS011;36118;56.468;84.952;2022-08-19T08:15:31;17.88;;;12.98;;
50231;SDS011;36118;56.468;84.952;2022-08-19T08:20:40;13.40;;;11.88;;
50231;SDS011;36118;56.468;84.952;2022-08-19T08:25:44;16.13;;;13.65;;
50231;SDS011;36118;56.468;84.952;2022-08-19T08:30:50;13.43;;;10.60;;
50231;SDS011;36118;56.468;84.952;2022-08-19T08:35:56;12.25;;;9.93;;
50231;SDS011;36118;56.468;84.952;2022-08-19T08:41:02;13.63;;;10.73;;
50231;SDS011;36118;56.468;84.952;2022-08-19T08:46:24;11.15;;;9.45;;
50231;SDS011;36118;56.468;84.952;2022-08-19T08:56:39;12.68;;;8.85;;
50231;SDS011;36118;56.468;84.952;2022-08-19T09:01:43;9.57;;;8.23;;
50231;SDS011;36118;56.468;84.952;2022-08-19T09:17:13;10.63;;;8.52;;
50231;SDS011;36118;56.468;84.952;2022-08-19T09:22:17;11.13;;;8.70;;
50231;SDS011;36118;56.468;84.952;2022-08-19T09:27:28;7.90;;;6.70;;
50231;SDS011;36118;56.468;84.952;2022-08-19T09:32:52;14.52;;;9.20;;
50231;SDS011;36118;56.468;84.952;2022-08-19T09:37:56;9.60;;;7.38;;
50231;SDS011;36118;56.468;84.952;2022-08-19T09:43:00;10.90;;;6.90;;
50231;SDS011;36118;56.468;84.952;2022-08-19T09:48:11;8.15;;;5.40;;
50231;SDS011;36118;56.468;84.952;2022-08-19T09:53:34;7.13;;;6.18;;
50231;SDS011;36118;56.468;84.952;2022-08-19T09:58:40;10.02;;;7.00;;
50231;SDS011;36118;56.468;84.952;2022-08-19T10:03:49;7.80;;;6.97;;
50231;SDS011;36118;56.468;84.952;2022-08-19T10:08:58;7.72;;;6.32;;
50231;SDS011;36118;56.468;84.952;2022-08-19T10:14:27;10.65;;;7.45;;
50231;SDS011;36118;56.468;84.952;2022-08-19T10:19:30;8.88;;;7.97;;
50231;SDS011;36118;56.468;84.952;2022-08-19T10:24:39;10.52;;;7.80;;
50231;SDS011;36118;56.468;84.952;2022-08-19T10:29:48;10.90;;;8.77;;
50231;SDS011;36118;56.468;84.952;2022-08-19T10:34:55;12.38;;;8.48;;
50231;SDS011;36118;56.468;84.952;2022-08-19T10:41:09;10.32;;;8.73;;
50231;SDS011;36118;56.468;84.952;2022-08-19T10:46:19;10.38;;;9.00;;
50231;SDS011;36118;56.468;84.952;2022-08-19T10:51:23;10.50;;;9.32;;
50231;SDS011;36118;56.468;84.952;2022-08-19T10:56:52;10.88;;;9.65;;
50231;SDS011;36118;56.468;84.952;2022-08-19T11:01:58;11.02;;;8.95;;
50231;SDS011;36118;56.468;84.952;2022-08-19T11:07:08;10.25;;;9.20;;
50231;SDS011;36118;56.468;84.952;2022-08-19T11:12:12;10.68;;;9.57;;
50231;SDS011;36118;56.468;84.952;2022-08-19T11:17:16;12.05;;;9.00;;
50231;SDS011;36118;56.468;84.952;2022-08-19T11:22:18;11.65;;;9.40;;
50231;SDS011;36118;56.468;84.952;2022-08-19T11:27:30;15.68;;;8.95;;
50231;SDS011;36118;56.468;84.952;2022-08-19T11:32:35;10.35;;;9.20;;
50231;SDS011;36118;56.468;84.952;2022-08-19T11:37:41;11.30;;;9.23;;
50231;SDS011;36118;56.468;84.952;2022-08-19T11:42:46;11.90;;;10.70;;
50231;SDS011;36118;56.468;84.952;2022-08-19T11:47:58;13.80;;;11.20;;
50231;SDS011;36118;56.468;84.952;2022-08-19T11:53:01;13.65;;;10.98;;
50231;SDS011;36118;56.468;84.952;2022-08-19T11:58:06;15.48;;;10.27;;
50231;SDS011;36118;56.468;84.952;2022-08-19T12:03:22;12.43;;;10.23;;
50231;SDS011;36118;56.468;84.952;2022-08-19T12:08:26;12.55;;;10.30;;
50231;SDS011;36118;56.468;84.952;2022-08-19T12:13:29;12.95;;;10.43;;
50231;SDS011;36118;56.468;84.952;2022-08-19T12:18:33;12.77;;;10.63;;
50231;SDS011;36118;56.468;84.952;2022-08-19T12:23:38;13.65;;;11.05;;
50231;SDS011;36118;56.468;84.952;2022-08-19T12:28:41;16.95;;;11.95;;
50231;SDS011;36118;56.468;84.952;2022-08-19T12:33:44;13.52;;;11.23;;
50231;SDS011;36118;56.468;84.952;2022-08-19T12:38:48;15.55;;;12.32;;
50231;SDS011;36118;56.468;84.952;2022-08-19T12:43:51;12.15;;;10.38;;
50231;SDS011;36118;56.468;84.952;2022-08-19T12:48:54;13.15;;;11.15;;
50231;SDS011;36118;56.468;84.952;2022-08-19T12:53:59;17.70;;;13.37;;
50231;SDS011;36118;56.468;84.952;2022-08-19T12:59:05;16.23;;;12.77;;
50231;SDS011;36118;56.468;84.952;2022-08-19T13:04:39;16.65;;;13.75;;
50231;SDS011;36118;56.468;84.952;2022-08-19T13:09:50;20.75;;;16.15;;
50231;SDS011;36118;56.468;84.952;2022-08-19T13:14:55;19.52;;;16.80;;
50231;SDS011;36118;56.468;84.952;2022-08-19T13:19:59;18.67;;;16.67;;
50231;SDS011;36118;56.468;84.952;2022-08-19T13:25:04;20.65;;;18.52;;
50231;SDS011;36118;56.468;84.952;2022-08-19T13:30:08;23.47;;;20.37;;
50231;SDS011;36118;56.468;84.952;2022-08-19T13:35:33;24.73;;;20.42;;
50231;SDS011;36118;56.468;84.952;2022-08-19T13:41:03;25.58;;;22.13;;
50231;SDS011;36118;56.468;84.952;2022-08-19T13:46:35;31.38;;;24.67;;
50231;SDS011;36118;56.468;84.952;2022-08-19T13:51:43;27.43;;;23.83;;
50231;SDS011;36118;56.468;84.952;2022-08-19T13:56:52;25.33;;;22.65;;
50231;SDS011;36118;56.468;84.952;2022-08-19T14:02:01;32.97;;;25.17;;
50231;SDS011;36118;56.468;84.952;2022-08-19T14:07:20;33.70;;;27.40;;
50231;SDS011;36118;56.468;84.952;2022-08-19T14:12:25;34.40;;;28.05;;
50231;SDS011;36118;56.468;84.952;2022-08-19T14:17:29;28.50;;;21.52;;
50231;SDS011;36118;56.468;84.952;2022-08-19T14:22:33;28.63;;;22.88;;
50231;SDS011;36118;56.468;84.952;2022-08-19T14:27:37;32.53;;;23.63;;
50231;SDS011;36118;56.468;84.952;2022-08-19T14:32:40;33.85;;;25.25;;
50231;SDS011;36118;56.468;84.952;2022-08-19T14:37:45;39.83;;;29.10;;
50231;SDS011;36118;56.468;84.952;2022-08-19T14:42:48;40.83;;;30.30;;
50231;SDS011;36118;56.468;84.952;2022-08-19T14:47:51;36.90;;;29.38;;
50231;SDS011;36118;56.468;84.952;2022-08-19T14:52:59;40.00;;;31.42;;
50231;SDS011;36118;56.468;84.952;2022-08-19T14:58:13;42.30;;;33.30;;
50231;SDS011;36118;56.468;84.952;2022-08-19T15:03:31;38.05;;;30.15;;
50231;SDS011;36118;56.468;84.952;2022-08-19T15:08:35;42.45;;;31.30;;
50231;SDS011;36118;56.468;84.952;2022-08-19T15:13:38;36.13;;;29.00;;
50231;SDS011;36118;56.468;84.952;2022-08-19T15:18:41;30.00;;;25.67;;
50231;SDS011;36118;56.468;84.952;2022-08-19T15:28:53;35.75;;;28.65;;
50231;SDS011;36118;56.468;84.952;2022-08-19T15:33:56;36.35;;;30.50;;
50231;SDS011;36118;56.468;84.952;2022-08-19T15:39:00;33.78;;;28.15;;
50231;SDS011;36118;56.468;84.952;2022-08-19T15:44:05;32.53;;;26.77;;
50231;SDS011;36118;56.468;84.952;2022-08-19T15:49:11;31.65;;;24.80;;
50231;SDS011;36118;56.468;84.952;2022-08-19T15:54:18;29.92;;;24.38;;
50231;SDS011;36118;56.468;84.952;2022-08-19T15:59:22;34.55;;;25.17;;
50231;SDS011;36118;56.468;84.952;2022-08-19T16:04:48;37.83;;;28.58;;
50231;SDS011;36118;56.468;84.952;2022-08-19T16:10:11;33.17;;;26.77;;
50231;SDS011;36118;56.468;84.952;2022-08-19T16:15:29;30.88;;;22.80;;
50231;SDS011;36118;56.468;84.952;2022-08-19T16:20:32;29.10;;;23.77;;
50231;SDS011;36118;56.468;84.952;2022-08-19T16:25:36;30.95;;;24.10;;
50231;SDS011;36118;56.468;84.952;2022-08-19T16:30:40;32.40;;;23.92;;
50231;SDS011;36118;56.468;84.952;2022-08-19T16:35:51;26.58;;;21.45;;
50231;SDS011;36118;56.468;84.952;2022-08-19T16:41:08;20.50;;;17.92;;
50231;SDS011;36118;56.468;84.952;2022-08-19T16:46:10;18.25;;;15.80;;
50231;SDS011;36118;56.468;84.952;2022-08-19T16:51:19;20.13;;;16.98;;
50231;SDS011;36118;56.468;84.952;2022-08-19T16:56:24;18.47;;;16.27;;
50231;SDS011;36118;56.468;84.952;2022-08-19T17:01:27;23.38;;;16.48;;
50231;SDS011;36118;56.468;84.952;2022-08-19T17:06:30;19.13;;;15.88;;
50231;SDS011;36118;56.468;84.952;2022-08-19T17:11:33;18.55;;;15.50;;
50231;SDS011;36118;56.468;84.952;2022-08-19T17:16:36;21.40;;;18.17;;
50231;SDS011;36118;56.468;84.952;2022-08-19T17:21:40;20.70;;;17.23;;
50231;SDS011;36118;56.468;84.952;2022-08-19T17:31:48;28.48;;;23.95;;
50231;SDS011;36118;56.468;84.952;2022-08-19T17:36:51;27.13;;;22.75;;
50231;SDS011;36118;56.468;84.952;2022-08-19T17:41:58;24.65;;;21.73;;
50231;SDS011;36118;56.468;84.952;2022-08-19T17:47:04;24.45;;;21.08;;
50231;SDS011;36118;56.468;84.952;2022-08-19T17:52:06;25.02;;;20.95;;
50231;SDS011;36118;56.468;84.952;2022-08-19T17:57:11;26.17;;;21.02;;
50231;SDS011;36118;56.468;84.952;2022-08-19T18:02:15;27.42;;;21.30;;
50231;SDS011;36118;56.468;84.952;2022-08-19T18:07:22;28.17;;;21.48;;
50231;SDS011;36118;56.468;84.952;2022-08-19T18:12:25;26.85;;;22.30;;
50231;SDS011;36118;56.468;84.952;2022-08-19T18:17:28;28.52;;;23.42;;
50231;SDS011;36118;56.468;84.952;2022-08-19T18:22:35;31.98;;;25.17;;
50231;SDS011;36118;56.468;84.952;2022-08-19T18:27:40;32.30;;;25.83;;
50231;SDS011;36118;56.468;84.952;2022-08-19T18:32:44;35.58;;;26.13;;
50231;SDS011;36118;56.468;84.952;2022-08-19T18:37:50;37.33;;;26.42;;
50231;SDS011;36118;56.468;84.952;2022-08-19T18:42:53;37.90;;;27.90;;
50231;SDS011;36118;56.468;84.952;2022-08-19T18:48:15;38.10;;;29.00;;
50231;SDS011;36118;56.468;84.952;2022-08-19T18:53:36;39.97;;;29.90;;
50231;SDS011;36118;56.468;84.952;2022-08-19T18:58:41;39.38;;;29.58;;
50231;SDS011;36118;56.468;84.952;2022-08-19T19:03:50;42.67;;;29.92;;
50231;SDS011;36118;56.468;84.952;2022-08-19T19:08:54;40.47;;;31.00;;
50231;SDS011;36118;56.468;84.952;2022-08-19T19:13:58;41.08;;;32.03;;
50231;SDS011;36118;56.468;84.952;2022-08-19T19:19:05;44.97;;;31.60;;
50231;SDS011;36118;56.468;84.952;2022-08-19T19:24:15;40.28;;;30.40;;
50231;SDS011;36118;56.468;84.952;2022-08-19T19:29:21;40.83;;;30.60;;
50231;SDS011;36118;56.468;84.952;2022-08-19T19:34:25;42.42;;;31.88;;
50231;SDS011;36118;56.468;84.952;2022-08-19T19:39:30;42.08;;;30.02;;
50231;SDS011;36118;56.468;84.952;2022-08-19T19:44:48;42.45;;;29.83;;
50231;SDS011;36118;56.468;84.952;2022-08-19T19:49:52;39.03;;;28.92;;
50231;SDS011;36118;56.468;84.952;2022-08-19T19:55:16;34.20;;;28.20;;
50231;SDS011;36118;56.468;84.952;2022-08-19T20:00:19;33.42;;;25.40;;
50231;SDS011;36118;56.468;84.952;2022-08-19T20:05:23;32.38;;;26.42;;
50231;SDS011;36118;56.468;84.952;2022-08-19T20:10:26;32.80;;;25.23;;
50231;SDS011;36118;56.468;84.952;2022-08-19T20:15:29;33.28;;;25.77;;
50231;SDS011;36118;56.468;84.952;2022-08-19T20:20:33;34.25;;;25.42;;
50231;SDS011;36118;56.468;84.952;2022-08-19T20:25:36;33.58;;;26.58;;
50231;SDS011;36118;56.468;84.952;2022-08-19T20:30:40;35.15;;;25.75;;
50231;SDS011;36118;56.468;84.952;2022-08-19T20:35:48;33.67;;;26.23;;
50231;SDS011;36118;56.468;84.952;2022-08-19T20:40:51;34.55;;;27.48;;
50231;SDS011;36118;56.468;84.952;2022-08-19T20:45:54;34.10;;;26.13;;
50231;SDS011;36118;56.468;84.952;2022-08-19T20:50:57;34.47;;;27.40;;
50231;SDS011;36118;56.468;84.952;2022-08-19T20:56:00;37.45;;;28.80;;
50231;SDS011;36118;56.468;84.952;2022-08-19T21:01:04;41.53;;;29.85;;
50231;SDS011;36118;56.468;84.952;2022-08-19T21:06:08;37.85;;;28.75;;
50231;SDS011;36118;56.468;84.952;2022-08-19T21:11:14;40.83;;;30.40;;
50231;SDS011;36118;56.468;84.952;2022-08-19T21:16:21;38.90;;;29.00;;
50231;SDS011;36118;56.468;84.952;2022-08-19T21:21:24;37.22;;;28.02;;
50231;SDS011;36118;56.468;84.952;2022-08-19T21:26:27;37.08;;;27.83;;
50231;SDS011;36118;56.468;84.952;2022-08-19T21:31:30;36.85;;;27.45;;
50231;SDS011;36118;56.468;84.952;2022-08-19T21:36:33;35.05;;;26.95;;
50231;SDS011;36118;56.468;84.952;2022-08-19T21:41:36;36.03;;;26.27;;
50231;SDS011;36118;56.468;84.952;2022-08-19T21:46:44;36.80;;;27.25;;
50231;SDS011;36118;56.468;84.952;2022-08-19T21:51:54;35.85;;;26.60;;
50231;SDS011;36118;56.468;84.952;2022-08-19T21:56:57;36.45;;;26.67;;
50231;SDS011;36118;56.468;84.952;2022-08-19T22:02:00;35.53;;;26.73;;
50231;SDS011;36118;56.468;84.952;2022-08-19T22:07:20;36.25;;;25.67;;
50231;SDS011;36118;56.468;84.952;2022-08-19T22:12:28;33.47;;;25.95;;
50231;SDS011;36118;56.468;84.952;2022-08-19T22:17:34;33.80;;;25.45;;
50231;SDS011;36118;56.468;84.952;2022-08-19T22:22:37;34.08;;;25.33;;
50231;SDS011;36118;56.468;84.952;2022-08-19T22:27:41;30.77;;;24.95;;
50231;SDS011;36118;56.468;84.952;2022-08-19T22:32:45;37.38;;;27.05;;
50231;SDS011;36118;56.468;84.952;2022-08-19T22:37:57;35.53;;;27.08;;
50231;SDS011;36118;56.468;84.952;2022-08-19T22:43:05;35.17;;;26.85;;
50231;SDS011;36118;56.468;84.952;2022-08-19T22:48:13;37.38;;;27.85;;
50231;SDS011;36118;56.468;84.952;2022-08-19T22:58:21;38.63;;;28.95;;
50231;SDS011;36118;56.468;84.952;2022-08-19T23:03:29;33.55;;;28.08;;
50231;SDS011;36118;56.468;84.952;2022-08-19T23:08:32;37.92;;;27.75;;
50231;SDS011;36118;56.468;84.952;2022-08-19T23:13:35;64.53;;;26.05;;
50231;SDS011;36118;56.468;84.952;2022-08-19T23:18:42;75.22;;;26.85;;
50231;SDS011;36118;56.468;84.952;2022-08-19T23:23:44;73.45;;;27.98;;
50231;SDS011;36118;56.468;84.952;2022-08-19T23:28:47;61.35;;;24.92;;
50231;SDS011;36118;56.468;84.952;2022-08-19T23:34:08;300.70;;;26.45;;
50231;SDS011;36118;56.468;84.952;2022-08-19T23:39:11;57.47;;;25.58;;
50231;SDS011;36118;56.468;84.952;2022-08-19T23:44:14;89.95;;;24.73;;
50231;SDS011;36118;56.468;84.952;2022-08-19T23:49:19;131.37;;;22.70;;
50231;SDS011;36118;56.468;84.952;2022-08-19T23:54:22;175.55;;;21.33;;
50231;SDS011;36118;56.468;84.952;2022-08-19T23:59:44;77.43;;;19.67;;
